createdAt,value
2022-08-21T00:04:09.301Z,4.85
2022-08-21T00:06:36.697Z,4.55
2022-08-21T00:11:29.916Z,4.68
2022-08-21T00:13:56.859Z,4.15
2022-08-21T00:16:23.806Z,4.43
2022-08-21T00:18:50.903Z,4.53
2022-08-21T00:21:17.740Z,4.70
2022-08-21T00:23:44.503Z,3.92
2022-08-21T00:26:11.319Z,4.30
2022-08-21T00:28:37.963Z,4.25
2022-08-21T00:33:30.872Z,4.32
2022-08-21T00:35:57.611Z,4.78
2022-08-21T00:38:24.303Z,4.35
2022-08-21T00:40:52.732Z,3.72
2022-08-21T00:43:21.598Z,5.22
2022-08-21T00:45:48.808Z,3.83
2022-08-21T00:48:15.967Z,4.32
2022-08-21T00:50:49.777Z,5.00
2022-08-21T00:53:16.494Z,4.97
2022-08-21T00:55:43.152Z,4.80
2022-08-21T00:58:12.366Z,4.10
2022-08-21T01:00:40.023Z,5.03
2022-08-21T01:03:09.040Z,5.13
2022-08-21T01:05:36.349Z,4.35
2022-08-21T01:08:03.637Z,5.43
2022-08-21T01:10:30.378Z,4.70
2022-08-21T01:12:58.395Z,5.53
2022-08-21T01:15:27.103Z,4.57
2022-08-21T01:17:54.813Z,5.03
2022-08-21T01:25:14.028Z,5.15
2022-08-21T01:27:40.859Z,5.13
2022-08-21T01:30:19.375Z,4.35
2022-08-21T01:32:46.863Z,5.75
2022-08-21T01:35:14.128Z,4.95
2022-08-21T01:37:41.153Z,5.30
2022-08-21T01:40:08.609Z,5.72
2022-08-21T01:42:35.958Z,4.90
2022-08-21T01:45:02.682Z,4.88
2022-08-21T01:49:54.909Z,5.38
2022-08-21T01:52:21.706Z,4.60
2022-08-21T01:54:54.902Z,5.20
2022-08-21T01:57:22.011Z,6.13
2022-08-21T02:02:15.633Z,6.22
2022-08-21T02:04:42.403Z,6.13
2022-08-21T02:07:12.369Z,5.70
2022-08-21T02:09:40.230Z,5.68
2022-08-21T02:12:07.123Z,5.05
2022-08-21T02:14:33.788Z,5.57
2022-08-21T02:17:05.319Z,5.55
2022-08-21T02:31:44.300Z,4.93
2022-08-21T02:34:11.012Z,5.43
2022-08-21T02:36:38.273Z,5.10
2022-08-21T02:39:04.965Z,5.28
2022-08-21T02:41:32.783Z,5.68
2022-08-21T02:43:59.572Z,5.22
2022-08-21T02:46:26.216Z,5.47
2022-08-21T02:48:52.920Z,4.88
2022-08-21T02:51:20.842Z,4.82
2022-08-21T02:53:48.099Z,5.47
2022-08-21T02:58:44.099Z,6.55
2022-08-21T03:01:12.108Z,4.45
2022-08-21T03:03:42.141Z,4.90
2022-08-21T03:06:09.945Z,5.10
2022-08-21T03:08:36.775Z,4.90
2022-08-21T03:11:03.560Z,4.80
2022-08-21T03:13:30.387Z,5.15
2022-08-21T03:15:57.099Z,5.60
2022-08-21T03:20:50.874Z,5.55
2022-08-21T03:23:19.125Z,5.22
2022-08-21T03:25:47.485Z,5.40
2022-08-21T03:28:16.556Z,5.78
2022-08-21T03:30:46.943Z,5.30
2022-08-21T03:33:15.243Z,6.15
2022-08-21T03:35:43.922Z,5.47
2022-08-21T03:38:11.105Z,5.20
2022-08-21T03:50:29.420Z,5.72
2022-08-21T03:52:56.617Z,6.28
2022-08-21T03:55:24.125Z,5.78
2022-08-21T03:57:53.676Z,5.53
2022-08-21T04:00:20.779Z,5.78
2022-08-21T04:27:05.387Z,5.68
2022-08-21T04:29:32.212Z,6.53
2022-08-21T04:34:24.459Z,5.35
2022-08-21T04:36:51.290Z,5.47
2022-08-21T04:39:18.006Z,5.40
2022-08-21T04:41:45.036Z,6.10
2022-08-21T04:44:11.689Z,5.57
2022-08-21T04:46:38.956Z,5.38
2022-08-21T04:49:06.249Z,5.38
2022-08-21T04:51:35.558Z,5.18
2022-08-21T04:54:02.254Z,5.22
2022-08-21T04:56:29.544Z,5.57
2022-08-21T04:58:57.919Z,5.68
2022-08-21T05:01:28.457Z,5.85
2022-08-21T05:03:57.070Z,5.05
2022-08-21T05:06:24.467Z,5.40
2022-08-21T05:08:58.009Z,5.38
2022-08-21T05:11:29.738Z,4.72
2022-08-21T05:13:57.479Z,5.45
2022-08-21T05:16:37.055Z,5.00
2022-08-21T05:19:05.282Z,5.88
2022-08-21T05:21:31.972Z,4.68
2022-08-21T05:24:00.449Z,4.50
2022-08-21T05:28:53.157Z,5.18
2022-08-21T05:31:19.855Z,4.93
2022-08-21T05:33:46.537Z,5.35
2022-08-21T05:36:13.245Z,4.78
2022-08-21T05:38:40.202Z,4.95
2022-08-21T05:41:06.964Z,4.68
2022-08-21T05:43:37.156Z,4.88
2022-08-21T05:46:05.360Z,5.20
2022-08-21T05:48:32.382Z,4.90
2022-08-21T05:50:59.361Z,5.35
2022-08-21T05:53:26.021Z,4.60
2022-08-21T05:55:52.994Z,4.70
2022-08-21T05:58:20.810Z,4.57
2022-08-21T06:00:48.941Z,5.10
2022-08-21T06:08:10.040Z,4.50
2022-08-21T06:13:02.751Z,4.07
2022-08-21T06:15:29.639Z,5.07
2022-08-21T06:22:47.644Z,4.43
2022-08-21T06:25:14.348Z,5.03
2022-08-21T06:27:41.110Z,4.70
2022-08-21T06:30:08.329Z,4.70
2022-08-21T06:32:35.757Z,4.43
2022-08-21T06:35:02.512Z,4.90
2022-08-21T06:37:29.193Z,4.72
2022-08-21T06:39:56.083Z,4.00
2022-08-21T06:42:22.812Z,4.10
2022-08-21T06:44:54.739Z,3.65
2022-08-21T06:49:46.858Z,3.85
2022-08-21T06:52:14.687Z,3.70
2022-08-21T06:54:41.879Z,3.72
2022-08-21T06:57:08.676Z,3.88
2022-08-21T06:59:35.348Z,3.15
2022-08-21T07:06:53.290Z,3.55
2022-08-21T07:11:48.128Z,3.47
2022-08-21T07:14:20.052Z,3.80
2022-08-21T07:21:38.603Z,3.65
2022-08-21T07:24:05.298Z,3.00
2022-08-21T07:26:32.036Z,3.50
2022-08-21T07:28:58.759Z,3.42
2022-08-21T07:31:27.515Z,3.15
2022-08-21T07:36:20.247Z,3.47
2022-08-21T07:38:47.178Z,3.38
2022-08-21T07:41:17.995Z,3.67
2022-08-21T07:43:46.187Z,3.20
2022-08-21T07:46:13.719Z,3.83
2022-08-21T07:53:34.025Z,3.50
2022-08-21T07:56:00.840Z,3.78
2022-08-21T07:58:27.507Z,3.55
2022-08-21T08:00:54.217Z,3.25
2022-08-21T08:05:46.403Z,3.42
2022-08-21T08:08:13.136Z,3.83
2022-08-21T08:15:36.907Z,3.10
2022-08-21T08:22:56.009Z,3.15
2022-08-21T08:25:24.038Z,3.10
2022-08-21T08:27:50.921Z,3.38
2022-08-21T08:30:19.269Z,3.33
2022-08-21T08:35:12.806Z,3.55
2022-08-21T08:37:41.365Z,3.28
2022-08-21T08:40:13.471Z,2.92
2022-08-21T08:42:40.523Z,3.65
2022-08-21T08:45:13.057Z,2.92
2022-08-21T08:55:44.972Z,3.00
2022-08-21T09:03:11.501Z,2.63
2022-08-21T09:15:38.614Z,2.58
2022-08-21T09:20:58.922Z,2.95
2022-08-21T09:23:25.641Z,2.63
2022-08-21T09:25:57.306Z,3.58
2022-08-21T09:28:24.063Z,3.25
2022-08-21T09:30:51.533Z,3.03
2022-08-21T09:33:18.516Z,3.05
2022-08-21T09:40:48.933Z,2.67
2022-08-21T09:45:42.954Z,2.78
2022-08-21T09:48:10.571Z,2.90
2022-08-21T10:01:03.834Z,3.63
2022-08-21T10:03:30.896Z,3.13
2022-08-21T10:06:02.918Z,2.85
2022-08-21T10:11:02.393Z,2.88
2022-08-21T10:18:47.513Z,2.60
2022-08-21T10:21:23.819Z,3.17
2022-08-21T10:29:16.514Z,2.70
2022-08-21T10:31:43.186Z,3.00
2022-08-21T10:37:07.842Z,2.53
2022-08-21T10:39:43.714Z,2.22
2022-08-21T10:42:18.625Z,2.83
2022-08-21T10:47:38.175Z,2.78
2022-08-21T10:52:44.507Z,2.42
2022-08-21T10:55:13.998Z,2.70
2022-08-21T10:57:44.083Z,2.42
2022-08-21T11:00:12.920Z,2.72
2022-08-21T11:02:52.705Z,2.78
2022-08-21T11:05:29.425Z,2.67
2022-08-21T11:18:16.288Z,2.65
2022-08-21T11:20:47.782Z,2.20
2022-08-21T12:01:28.371Z,2.20
2022-08-21T12:04:04.956Z,2.53
2022-08-21T12:11:31.089Z,2.15
2022-08-21T12:13:58.208Z,2.50
2022-08-21T12:39:28.609Z,2.35
2022-08-21T12:42:02.261Z,2.22
2022-08-21T13:27:23.463Z,1.98
2022-08-21T13:57:17.696Z,2.42
2022-08-21T14:52:29.929Z,2.53
2022-08-21T14:57:22.486Z,2.30
2022-08-21T14:59:49.335Z,2.28
2022-08-21T15:09:33.861Z,2.88
2022-08-21T15:12:01.777Z,2.38
2022-08-21T15:14:29.771Z,2.13
2022-08-21T15:21:47.898Z,2.25
2022-08-21T15:29:06.947Z,2.58
2022-08-21T15:31:33.872Z,2.65
2022-08-21T15:34:00.695Z,2.58
2022-08-21T15:43:47.101Z,2.60
2022-08-21T15:46:14.741Z,2.60
2022-08-21T15:48:44.472Z,2.83
2022-08-21T15:58:31.609Z,2.05
2022-08-21T16:01:02.480Z,2.45
2022-08-21T16:03:29.511Z,3.38
2022-08-21T16:08:24.387Z,2.47
2022-08-21T16:10:51.968Z,2.70
2022-08-21T16:15:46.749Z,2.30
2022-08-21T16:18:13.616Z,3.03
2022-08-21T16:20:40.424Z,2.35
2022-08-21T16:23:07.197Z,2.60
2022-08-21T16:25:36.252Z,3.08
2022-08-21T16:28:03.936Z,2.70
2022-08-21T16:30:31.847Z,2.95
2022-08-21T16:33:00.681Z,2.80
2022-08-21T16:35:27.407Z,2.72
2022-08-21T16:37:54.225Z,2.90
2022-08-21T16:40:23.374Z,2.83
2022-08-21T16:42:50.594Z,3.05
2022-08-21T16:45:18.548Z,2.80
2022-08-21T16:47:45.164Z,2.40
2022-08-21T16:50:15.583Z,3.08
2022-08-21T16:52:42.322Z,2.80
2022-08-21T16:55:09.452Z,3.60
2022-08-21T16:57:37.015Z,2.60
2022-08-21T17:00:08.425Z,2.70
2022-08-21T17:02:39.943Z,3.08
2022-08-21T17:05:12.939Z,3.10
2022-08-21T17:07:41.613Z,2.58
2022-08-21T17:10:09.212Z,2.80
2022-08-21T17:12:36.235Z,2.70
2022-08-21T17:17:33.560Z,3.00
2022-08-21T17:20:00.347Z,3.05
2022-08-21T17:22:27.037Z,2.83
2022-08-21T17:24:54.372Z,3.15
2022-08-21T17:27:23.294Z,2.65
2022-08-21T17:29:54.767Z,2.92
2022-08-21T17:32:21.640Z,3.30
2022-08-21T17:34:48.370Z,2.70
2022-08-21T17:39:40.564Z,2.97
2022-08-21T17:42:09.723Z,3.10
2022-08-21T17:44:40.513Z,3.05
2022-08-21T17:47:07.713Z,2.90
2022-08-21T17:49:34.516Z,3.00
2022-08-21T17:54:29.025Z,2.67
2022-08-21T17:56:56.615Z,3.30
2022-08-21T17:59:24.367Z,3.47
2022-08-21T18:10:06.413Z,3.38
2022-08-21T18:12:33.987Z,2.83
2022-08-21T18:17:28.500Z,2.92
2022-08-21T18:19:55.474Z,2.88
2022-08-21T18:24:47.828Z,6.22
2022-08-21T18:27:15.341Z,5.60
2022-08-21T18:29:43.817Z,16.40
2022-08-21T18:32:29.689Z,11.70
2022-08-21T18:34:59.183Z,8.35
2022-08-21T18:42:17.623Z,2.97
2022-08-21T18:52:28.508Z,3.22
2022-08-21T18:54:58.410Z,3.28
2022-08-21T19:04:50.656Z,2.80
2022-08-21T19:07:19.917Z,2.70
2022-08-21T19:10:01.886Z,3.00
2022-08-21T19:12:33.568Z,2.85
2022-08-21T19:15:00.700Z,3.40
2022-08-21T19:17:27.475Z,3.28
2022-08-21T19:19:56.080Z,3.67
2022-08-21T19:22:22.919Z,2.90
2022-08-21T19:24:49.779Z,3.28
2022-08-21T19:29:42.769Z,4.03
2022-08-21T19:32:10.647Z,2.97
2022-08-21T19:44:25.138Z,3.15
2022-08-21T19:46:52.721Z,2.72
2022-08-21T19:49:22.352Z,2.63
2022-08-21T19:51:49.580Z,3.42
2022-08-21T19:54:16.481Z,3.13
2022-08-21T20:04:00.256Z,2.90
2022-08-21T20:06:27.233Z,3.25
2022-08-21T20:08:55.211Z,2.47
2022-08-21T20:11:27.752Z,2.50
2022-08-21T20:16:24.790Z,3.30
2022-08-21T20:21:18.158Z,2.90
2022-08-21T20:23:48.755Z,2.58
2022-08-21T20:28:41.943Z,2.78
2022-08-21T20:31:10.592Z,3.45
2022-08-21T20:33:37.648Z,4.07
2022-08-21T20:36:04.547Z,3.53
2022-08-21T20:38:31.829Z,2.88
2022-08-21T20:43:24.425Z,3.17
2022-08-21T20:45:51.281Z,2.50
2022-08-21T21:01:39.928Z,2.72
2022-08-21T21:06:59.062Z,3.30
2022-08-21T21:09:34.968Z,3.15
2022-08-21T21:12:09.858Z,2.67
2022-08-21T21:14:44.961Z,3.10
2022-08-21T21:35:03.356Z,3.20
2022-08-21T21:37:33.890Z,3.13
2022-08-21T21:40:34.166Z,2.97
2022-08-21T21:48:21.247Z,3.20
2022-08-21T21:50:48.297Z,2.92
2022-08-21T21:58:16.888Z,3.30
2022-08-21T22:00:52.090Z,2.85
2022-08-21T22:03:31.181Z,2.60
2022-08-21T22:06:11.723Z,2.80
2022-08-21T22:08:59.670Z,3.13
2022-08-21T22:14:15.855Z,2.83
2022-08-21T22:16:45.070Z,2.78
2022-08-21T22:24:48.044Z,2.67
2022-08-21T22:29:58.635Z,3.67
2022-08-21T22:32:25.651Z,3.15
2022-08-21T22:35:03.068Z,3.83
2022-08-21T22:37:40.246Z,3.85
2022-08-21T22:40:08.333Z,3.70
2022-08-21T22:42:35.310Z,3.70
2022-08-21T22:45:03.104Z,3.55
2022-08-21T22:47:34.778Z,3.53
2022-08-21T22:50:04.979Z,3.10
2022-08-21T22:52:33.717Z,3.22
2022-08-21T22:55:02.520Z,3.35
2022-08-21T22:57:32.401Z,3.50
2022-08-21T22:59:59.079Z,3.30
2022-08-21T23:02:25.893Z,3.00
2022-08-21T23:04:56.813Z,3.22
2022-08-21T23:17:34.736Z,3.65
2022-08-21T23:20:02.123Z,3.38
2022-08-21T23:22:28.834Z,3.05
2022-08-21T23:25:04.512Z,3.00
2022-08-21T23:27:35.961Z,2.95
2022-08-21T23:35:57.931Z,3.15
2022-08-21T23:38:44.854Z,3.58
2022-08-21T23:43:58.347Z,3.28
2022-08-21T23:46:37.305Z,3.55
2022-08-21T23:49:19.232Z,3.25
2022-08-21T23:51:48.709Z,3.30
2022-08-21T23:54:23.605Z,3.40
